Time;durP1;ratioP1;P1;durP2;ratioP2;P2;SDS_P1;SDS_P2;PMS_P1;PMS_P2;Temp;Humidity;BMP_temperature;BMP_pressure;BME280_temperature;BME280_humidity;BME280_pressure;Samples;Min_cycle;Max_cycle;Signal;HPM_P1;HPM_P2
2023/05/04 00:00:34;;;;;;;6.07;4.80;;;;;;;8.93;98.37;98650.72;5051069;28;20200;-84
2023/05/04 00:03:02;;;;;;;5.70;4.10;;;;;;;8.88;98.53;98655.38;5051259;28;20226;-84
2023/05/04 00:05:29;;;;;;;5.37;4.30;;;;;;;8.84;98.76;98651.22;5051749;28;20305;-84
2023/05/04 00:07:55;;;;;;;6.20;4.37;;;;;;;8.79;98.68;98642.69;5051231;28;20706;-84
2023/05/04 00:10:22;;;;;;;6.17;4.37;;;;;;;8.76;99.47;98648.97;5051113;28;20250;-84
2023/05/04 00:12:48;;;;;;;5.93;4.67;;;;;;;8.72;100.00;98638.69;5051177;28;20243;-84
2023/05/04 00:15:15;;;;;;;6.27;4.60;;;;;;;8.70;100.00;98637.94;5050552;28;20212;-84
2023/05/04 00:17:41;;;;;;;6.20;5.23;;;;;;;8.68;100.00;98639.78;5051213;28;20343;-84
2023/05/04 00:20:12;;;;;;;7.10;4.80;;;;;;;8.66;100.00;98637.25;5050900;28;20209;-84
2023/05/04 00:22:38;;;;;;;5.37;4.33;;;;;;;8.66;100.00;98641.66;5051540;28;20613;-84
2023/05/04 00:25:06;;;;;;;8.47;5.07;;;;;;;8.64;100.00;98635.63;5051566;28;20251;-84
2023/05/04 00:27:33;;;;;;;7.37;4.53;;;;;;;8.61;100.00;98630.50;5051510;28;20209;-84
2023/05/04 00:30:00;;;;;;;7.30;4.53;;;;;;;8.57;100.00;98632.44;5051345;28;20230;-84
2023/05/04 00:32:27;;;;;;;5.93;4.90;;;;;;;8.54;100.00;98630.00;5051783;28;20235;-84
2023/05/04 00:34:53;;;;;;;6.83;4.50;;;;;;;8.50;100.00;98630.25;5051535;28;20208;-84
2023/05/04 00:37:21;;;;;;;5.60;4.30;;;;;;;8.48;100.00;98627.69;5050810;28;20204;-84
2023/05/04 00:39:47;;;;;;;5.47;4.17;;;;;;;8.46;100.00;98628.69;5050621;28;20231;-84
2023/05/04 00:42:14;;;;;;;5.83;4.77;;;;;;;8.45;100.00;98621.72;5050725;28;20248;-84
2023/05/04 00:44:41;;;;;;;7.40;4.53;;;;;;;8.46;100.00;98620.78;5050611;28;20204;-84
2023/05/04 00:47:08;;;;;;;5.97;4.40;;;;;;;8.44;100.00;98617.41;5051308;28;20426;-84
2023/05/04 00:49:35;;;;;;;5.80;4.57;;;;;;;8.39;100.00;98622.06;5050843;28;20232;-84
2023/05/04 00:52:03;;;;;;;6.53;4.80;;;;;;;8.38;100.00;98620.34;5050507;28;20643;-84
2023/05/04 00:54:32;;;;;;;6.97;5.00;;;;;;;8.35;100.00;98621.38;5050894;28;20234;-84
2023/05/04 00:56:59;;;;;;;8.87;4.70;;;;;;;8.36;100.00;98617.78;5050773;28;20280;-84
2023/05/04 00:59:25;;;;;;;7.50;4.53;;;;;;;8.34;100.00;98624.06;5050355;28;20223;-84
2023/05/04 01:01:52;;;;;;;6.13;4.63;;;;;;;8.30;100.00;98617.25;5050841;28;20228;-84
2023/05/04 01:04:18;;;;;;;6.07;4.60;;;;;;;8.28;100.00;98621.75;5050946;28;20204;-84
2023/05/04 01:06:48;;;;;;;6.70;4.87;;;;;;;8.26;100.00;98616.56;5050822;28;20218;-83
2023/05/04 01:09:23;;;;;;;8.07;4.90;;;;;;;8.22;100.00;98624.72;5050343;28;20207;-84
2023/05/04 01:11:58;;;;;;;8.30;5.23;;;;;;;8.19;100.00;98619.56;5050486;28;20230;-83
2023/05/04 01:14:25;;;;;;;6.03;5.27;;;;;;;8.16;100.00;98625.84;5050841;28;20210;-83
2023/05/04 01:16:53;;;;;;;7.33;5.10;;;;;;;8.16;100.00;98625.00;5050846;28;20208;-84
2023/05/04 01:19:20;;;;;;;6.27;5.13;;;;;;;8.14;100.00;98617.16;5050249;28;20208;-84
2023/05/04 01:21:48;;;;;;;8.07;5.20;;;;;;;8.13;100.00;98619.88;5050519;28;20242;-83
2023/05/04 01:24:15;;;;;;;6.67;5.10;;;;;;;8.13;100.00;98619.88;5050509;28;20212;-83
2023/05/04 01:26:45;;;;;;;7.27;5.13;;;;;;;8.13;100.00;98617.25;5051302;28;20208;-83
2023/05/04 01:29:17;;;;;;;6.57;5.20;;;;;;;8.15;100.00;98623.31;5053769;28;20635;-84
2023/05/04 01:31:45;;;;;;;6.50;4.93;;;;;;;8.12;100.00;98615.53;5054028;28;20228;-84
2023/05/04 01:34:13;;;;;;;7.97;5.63;;;;;;;8.12;100.00;98612.91;5053884;28;20254;-84
2023/05/04 01:36:41;;;;;;;8.90;5.20;;;;;;;8.09;100.00;98607.81;5053786;28;20218;-83
2023/05/04 01:39:09;;;;;;;7.30;5.60;;;;;;;8.07;100.00;98620.19;5053820;28;20212;-84
2023/05/04 01:41:36;;;;;;;7.00;5.07;;;;;;;8.04;100.00;98615.97;5053837;28;20228;-83
2023/05/04 01:44:02;;;;;;;6.60;5.10;;;;;;;8.01;100.00;98604.72;5053981;28;20204;-83
2023/05/04 01:46:29;;;;;;;8.93;5.10;;;;;;;7.99;100.00;98612.72;5053651;28;20256;-83
2023/05/04 01:48:56;;;;;;;6.60;5.43;;;;;;;8.00;100.00;98600.38;5050803;28;20223;-83
2023/05/04 01:51:22;;;;;;;6.30;5.33;;;;;;;8.03;100.00;98613.41;5049982;28;20760;-83
2023/05/04 01:53:49;;;;;;;7.77;5.70;;;;;;;8.06;100.00;98613.22;5050629;28;20215;-84
2023/05/04 01:56:17;;;;;;;8.27;5.50;;;;;;;8.06;100.00;98624.63;5052843;28;20220;-85
2023/05/04 01:58:44;;;;;;;7.47;5.70;;;;;;;8.08;100.00;98622.75;5053516;28;20222;-85
2023/05/04 02:01:10;;;;;;;8.30;5.97;;;;;;;8.13;100.00;98619.88;5051935;28;20210;-85
2023/05/04 02:03:37;;;;;;;7.93;6.03;;;;;;;8.11;100.00;98616.47;5050892;28;20243;-83
2023/05/04 02:06:03;;;;;;;7.37;5.77;;;;;;;8.13;100.00;98626.00;5050957;28;20223;-83
2023/05/04 02:08:30;;;;;;;7.60;5.70;;;;;;;8.09;100.00;98620.97;5051235;28;20218;-84
2023/05/04 02:10:56;;;;;;;7.23;5.87;;;;;;;8.01;100.00;98621.38;5053106;28;20238;-83
2023/05/04 02:13:24;;;;;;;7.70;5.93;;;;;;;7.95;100.00;98611.16;5052952;28;20518;-84
2023/05/04 02:15:51;;;;;;;7.10;5.33;;;;;;;7.90;100.00;98609.69;5050387;28;20214;-84
2023/05/04 02:18:17;;;;;;;7.90;5.60;;;;;;;7.82;100.00;98611.84;5050389;28;20682;-84
2023/05/04 02:20:44;;;;;;;7.97;5.50;;;;;;;7.77;100.00;98608.63;5050014;28;20215;-84
2023/05/04 02:23:10;;;;;;;8.47;6.10;;;;;;;7.68;100.00;98603.81;5052623;28;20267;-85
2023/05/04 02:25:39;;;;;;;6.70;5.87;;;;;;;7.62;100.00;98607.59;5052971;28;20217;-83
2023/05/04 02:28:05;;;;;;;6.83;6.03;;;;;;;7.57;100.00;98598.22;5052965;28;20231;-84
2023/05/04 02:30:33;;;;;;;7.50;5.37;;;;;;;7.56;100.00;98601.78;5052426;28;20716;-84
2023/05/04 02:33:01;;;;;;;7.53;5.23;;;;;;;7.51;100.00;98598.53;5052524;28;20230;-85
2023/05/04 02:35:27;;;;;;;8.50;5.43;;;;;;;7.44;100.00;98602.41;5052674;28;20213;-84
2023/05/04 02:37:53;;;;;;;8.40;5.83;;;;;;;7.39;100.00;98604.38;5052339;28;20223;-83
2023/05/04 02:40:20;;;;;;;7.63;5.40;;;;;;;7.36;100.00;98604.56;5052707;28;20215;-85
2023/05/04 02:42:46;;;;;;;8.90;6.57;;;;;;;7.33;100.00;98610.81;5052729;28;20238;-84
2023/05/04 02:45:13;;;;;;;7.60;6.03;;;;;;;7.34;100.00;98616.94;5052702;28;20224;-84
2023/05/04 02:47:41;;;;;;;9.03;6.73;;;;;;;7.34;100.00;98607.25;5052634;28;20212;-84
2023/05/04 02:50:08;;;;;;;8.80;6.33;;;;;;;7.28;100.00;98604.91;5052425;28;20239;-84
2023/05/04 02:52:35;;;;;;;7.97;6.43;;;;;;;7.24;100.00;98602.53;5076331;22;20229;-76
2023/05/04 02:55:02;;;;;;;7.80;6.03;;;;;;;7.21;100.00;98605.28;5072254;28;20212;-75
2023/05/04 02:57:28;;;;;;;7.43;6.03;;;;;;;7.19;100.00;98607.16;5072408;28;20615;-75
2023/05/04 02:59:55;;;;;;;8.73;6.67;;;;;;;7.16;100.00;98601.19;5071877;28;20216;-76
2023/05/04 03:02:21;;;;;;;9.27;6.67;;;;;;;7.10;100.00;98598.84;5072100;28;20251;-76
2023/05/04 03:04:49;;;;;;;8.87;6.37;;;;;;;7.05;100.00;98601.72;5072146;28;20211;-75
2023/05/04 03:07:16;;;;;;;8.13;6.60;;;;;;;7.06;100.00;98599.91;5072481;28;20213;-75
2023/05/04 03:09:42;;;;;;;10.40;6.67;;;;;;;7.09;100.00;98600.63;5071895;28;20219;-75
2023/05/04 03:12:09;;;;;;;11.23;7.20;;;;;;;7.05;100.00;98604.34;5071998;28;20234;-76
2023/05/04 03:14:35;;;;;;;8.23;6.53;;;;;;;7.05;100.00;98604.34;5071960;28;20212;-76
2023/05/04 03:17:02;;;;;;;8.67;6.30;;;;;;;7.05;100.00;98604.34;5072126;28;20209;-76
2023/05/04 03:19:28;;;;;;;12.87;7.50;;;;;;;7.04;100.00;98601.78;5071707;28;20216;-76
2023/05/04 03:21:56;;;;;;;7.97;6.50;;;;;;;7.07;100.00;98607.72;5070549;28;20228;-78
2023/05/04 03:24:23;;;;;;;9.80;7.10;;;;;;;7.08;100.00;98608.59;5068728;28;20207;-75
2023/05/04 03:26:49;;;;;;;13.40;6.87;;;;;;;7.10;100.00;98606.75;5068853;28;20207;-76
2023/05/04 03:29:16;;;;;;;8.63;7.00;;;;;;;7.10;100.00;98609.38;5068519;28;20205;-76
2023/05/04 03:31:42;;;;;;;8.67;6.40;;;;;;;7.10;100.00;98601.47;5071379;28;20586;-75
2023/05/04 03:34:11;;;;;;;10.63;7.57;;;;;;;7.07;100.00;98602.47;5071770;28;20204;-76
2023/05/04 03:36:37;;;;;;;9.30;6.97;;;;;;;7.08;100.00;98604.19;5071552;28;20213;-76
2023/05/04 03:39:06;;;;;;;9.43;7.00;;;;;;;7.07;100.00;98602.47;5071543;28;20217;-76
2023/05/04 03:41:33;;;;;;;11.27;6.93;;;;;;;7.05;100.00;98600.84;5071449;28;20205;-76
2023/05/04 03:43:59;;;;;;;8.90;6.77;;;;;;;7.03;100.00;98589.56;5071809;28;20230;-75
2023/05/04 03:46:26;;;;;;;8.97;6.47;;;;;;;7.04;100.00;98592.13;5073233;28;20238;-78
2023/05/04 03:48:52;;;;;;;9.30;7.10;;;;;;;7.02;100.00;98593.94;5075574;28;20212;-78
2023/05/04 03:51:19;;;;;;;9.23;6.57;;;;;;;7.03;100.00;98594.81;5073781;28;20230;-76
2023/05/04 03:53:45;;;;;;;11.13;7.50;;;;;;;7.00;100.00;98590.56;5071559;28;20235;-79
2023/05/04 03:56:13;;;;;;;12.43;6.97;;;;;;;7.03;100.00;98585.13;5071586;28;20218;-78
2023/05/04 03:58:40;;;;;;;9.43;7.00;;;;;;;7.02;100.00;98582.59;5071436;28;20207;-76
2023/05/04 04:01:07;;;;;;;9.07;6.30;;;;;;;7.01;100.00;98584.38;5071197;28;20302;-75
2023/05/04 04:03:35;;;;;;;8.87;6.50;;;;;;;6.97;100.00;98580.19;5071239;28;20278;-75
2023/05/04 04:06:02;;;;;;;11.77;7.17;;;;;;;6.98;100.00;98584.53;5071257;28;20218;-78
2023/05/04 04:08:29;;;;;;;9.60;6.77;;;;;;;6.96;100.00;98588.16;5071178;28;20270;-75
2023/05/04 04:10:55;;;;;;;9.23;6.80;;;;;;;6.95;100.00;98584.66;5071085;28;20228;-75
2023/05/04 04:13:23;;;;;;;10.67;7.53;;;;;;;6.98;100.00;98588.91;5071072;28;20235;-75
2023/05/04 04:15:50;;;;;;;12.30;7.60;;;;;;;6.99;100.00;98582.75;5071142;28;20282;-75
2023/05/04 04:18:16;;;;;;;9.43;7.30;;;;;;;7.00;100.00;98580.03;5071232;28;20627;-75
2023/05/04 04:20:43;;;;;;;9.70;7.30;;;;;;;7.03;100.00;98585.13;5071418;28;20218;-75
2023/05/04 04:23:09;;;;;;;8.23;6.30;;;;;;;7.02;100.00;98580.81;5070949;28;20241;-75
2023/05/04 04:25:36;;;;;;;10.73;7.20;;;;;;;7.05;100.00;98580.69;5071331;28;20220;-75
2023/05/04 04:28:03;;;;;;;9.43;6.93;;;;;;;7.06;100.00;98584.13;5071281;28;20241;-75
2023/05/04 04:30:31;;;;;;;10.37;7.00;;;;;;;7.05;100.00;98582.44;5070876;28;20210;-76
2023/05/04 04:32:58;;;;;;;10.60;7.53;;;;;;;7.10;100.00;98576.06;5070950;28;20728;-75
2023/05/04 04:35:24;;;;;;;8.23;7.20;;;;;;;7.16;100.00;98574.91;5070925;28;20203;-75
2023/05/04 04:37:51;;;;;;;8.60;6.97;;;;;;;7.23;100.00;98569.28;5070855;28;20223;-75
2023/05/04 04:40:17;;;;;;;10.73;7.40;;;;;;;7.32;100.00;98578.50;5070808;28;20213;-75
2023/05/04 04:42:44;;;;;;;10.17;7.60;;;;;;;7.36;100.00;98588.78;5070973;28;20287;-75
2023/05/04 04:45:11;;;;;;;11.80;8.17;;;;;;;7.42;100.00;98583.22;5070916;28;20210;-75
2023/05/04 04:47:40;;;;;;;8.97;7.30;;;;;;;7.48;100.00;98586.38;5070878;28;20303;-76
2023/05/04 04:50:08;;;;;;;9.00;7.17;;;;;;;7.56;100.00;98586.00;5070601;28;20210;-76
2023/05/04 04:52:34;;;;;;;10.00;7.63;;;;;;;7.62;100.00;98580.44;5070490;28;20238;-76
2023/05/04 04:55:01;;;;;;;9.07;7.40;;;;;;;7.67;100.00;98574.03;5070998;28;20215;-76
2023/05/04 04:57:28;;;;;;;9.67;7.80;;;;;;;7.70;100.00;98579.13;5071027;28;20213;-76
2023/05/04 04:59:54;;;;;;;8.90;6.93;;;;;;;7.73;100.00;98573.69;5070557;28;20687;-75
2023/05/04 05:02:21;;;;;;;8.77;7.20;;;;;;;7.79;100.00;98575.19;5073871;28;20230;-77
2023/05/04 05:04:49;;;;;;;8.67;6.60;;;;;;;7.84;100.00;98570.53;5074428;28;20208;-77
2023/05/04 05:07:16;;;;;;;9.60;7.53;;;;;;;7.89;100.00;98576.41;5074489;28;20211;-77
2023/05/04 05:09:42;;;;;;;9.13;7.67;;;;;;;7.93;100.00;98575.31;5073923;28;20272;-77
2023/05/04 05:12:09;;;;;;;9.07;7.13;;;;;;;8.02;100.00;98580.94;5074243;28;20266;-76
2023/05/04 05:14:35;;;;;;;12.70;8.47;;;;;;;8.11;100.00;98569.09;5074524;28;20222;-76
2023/05/04 05:17:03;;;;;;;12.10;8.90;;;;;;;8.26;100.00;98565.69;5073977;28;20316;-75
2023/05/04 05:19:32;;;;;;;11.47;8.63;;;;;;;8.38;100.00;98567.69;5073674;28;20210;-76
2023/05/04 05:22:00;;;;;;;10.93;7.93;;;;;;;8.60;100.00;98569.06;5074488;28;20468;-76
2023/05/04 05:24:27;;;;;;;10.17;7.90;;;;;;;8.76;100.00;98562.00;5074021;28;20234;-75
2023/05/04 05:26:53;;;;;;;12.83;8.20;;;;;;;8.96;100.00;98563.53;5073948;28;20207;-76
2023/05/04 05:29:20;;;;;;;11.53;8.50;;;;;;;9.13;100.00;98559.00;5073526;28;20217;-75
2023/05/04 05:31:46;;;;;;;12.47;8.93;;;;;;;9.39;100.00;98557.53;5073537;28;20238;-76
2023/05/04 05:34:13;;;;;;;11.87;8.37;;;;;;;9.54;100.00;98559.31;5073632;28;20208;-76
2023/05/04 05:36:39;;;;;;;10.07;8.03;;;;;;;9.76;100.00;98563.22;5073955;28;20676;-76
2023/05/04 05:39:07;;;;;;;12.07;8.27;;;;;;;10.10;100.00;98554.16;5073956;28;20456;-77
2023/05/04 05:41:34;;;;;;;11.10;7.87;;;;;;;10.56;100.00;98558.31;5073672;28;20203;-75
2023/05/04 05:44:00;;;;;;;12.60;7.63;;;;;;;11.10;100.00;98555.69;5073826;28;20210;-76
2023/05/04 05:46:27;;;;;;;10.50;7.27;;;;;;;11.62;96.90;98545.19;5073673;28;20213;-76
2023/05/04 05:48:54;;;;;;;9.07;7.47;;;;;;;12.18;92.43;98542.19;5073895;28;20653;-76
2023/05/04 05:51:20;;;;;;;11.30;7.00;;;;;;;12.67;87.28;98524.53;5073571;28;20242;-76
2023/05/04 05:53:47;;;;;;;9.20;7.50;;;;;;;13.07;84.28;98518.91;5073561;28;20221;-76
2023/05/04 05:56:14;;;;;;;9.40;7.33;;;;;;;13.33;81.62;98515.19;5073662;28;20214;-76
2023/05/04 05:58:41;;;;;;;10.17;7.03;;;;;;;13.68;80.21;98515.22;5073542;28;20219;-76
2023/05/04 06:01:07;;;;;;;9.73;7.23;;;;;;;13.92;77.02;98514.19;5073195;28;20256;-76
2023/05/04 06:03:34;;;;;;;8.37;6.80;;;;;;;14.24;74.66;98506.44;5073589;28;20227;-77
2023/05/04 06:06:00;;;;;;;9.37;7.10;;;;;;;14.54;73.58;98507.53;5073402;28;20207;-77
2023/05/04 06:08:27;;;;;;;9.83;6.83;;;;;;;14.79;71.98;98498.44;5073516;28;20215;-76
2023/05/04 06:10:55;;;;;;;8.43;7.03;;;;;;;15.10;70.60;98489.66;5073127;28;20212;-76
2023/05/04 06:13:23;;;;;;;7.87;6.60;;;;;;;15.31;69.62;98487.88;5072444;28;20287;-76
2023/05/04 06:15:52;;;;;;;9.83;7.33;;;;;;;15.45;68.38;98485.81;5073332;28;20213;-76
2023/05/04 06:18:19;;;;;;;8.93;7.40;;;;;;;15.58;67.91;98489.13;5073376;28;20209;-76
2023/05/04 06:20:46;;;;;;;11.33;7.77;;;;;;;15.68;66.21;98475.88;5073001;28;20300;-76
2023/05/04 06:23:13;;;;;;;8.27;7.00;;;;;;;15.93;66.26;98486.16;5073190;28;20312;-76
2023/05/04 06:25:40;;;;;;;11.40;8.87;;;;;;;16.04;65.75;98474.44;5072996;28;20209;-76
2023/05/04 06:28:06;;;;;;;9.67;7.43;;;;;;;16.24;65.86;98476.25;5072933;28;20212;-76
2023/05/04 06:30:35;;;;;;;8.53;7.60;;;;;;;16.18;65.25;98471.47;5073073;28;20205;-76
2023/05/04 06:33:03;;;;;;;9.93;7.87;;;;;;;16.06;65.51;98481.50;5072985;28;20244;-76
2023/05/04 06:35:30;;;;;;;10.17;8.20;;;;;;;15.68;68.10;98497.22;5072947;28;20220;-76
2023/05/04 06:37:57;;;;;;;8.50;7.60;;;;;;;15.16;69.80;98499.81;5072914;28;20221;-82
2023/05/04 06:40:24;;;;;;;9.33;8.17;;;;;;;14.57;73.26;98517.06;5072552;28;20228;-82
2023/05/04 06:42:51;;;;;;;9.53;8.27;;;;;;;14.06;76.70;98529.91;5072639;28;20226;-82
2023/05/04 06:45:18;;;;;;;11.23;8.13;;;;;;;13.81;79.49;98537.25;5073215;28;20219;-88
2023/05/04 06:47:46;;;;;;;11.97;10.20;;;;;;;13.68;81.76;98541.78;5073471;28;20215;-83
2023/05/04 06:50:13;;;;;;;14.07;11.40;;;;;;;13.55;84.54;98548.97;5071698;28;20901;-83
2023/05/04 06:52:41;;;;;;;12.57;10.00;;;;;;;13.56;84.27;98548.84;5070266;28;20704;-83
2023/05/04 06:55:08;;;;;;;13.45;10.23;;;;;;;13.52;84.85;98547.38;5071626;28;20464;-84
2023/05/04 06:57:34;;;;;;;14.90;10.67;;;;;;;13.60;85.61;98541.50;5072232;28;20218;-83
2023/05/04 07:00:02;;;;;;;13.63;10.53;;;;;;;13.71;86.26;98549.50;5071954;28;20218;-84
2023/05/04 07:02:28;;;;;;;13.10;10.57;;;;;;;13.81;87.23;98546.03;5072570;28;20257;-83
2023/05/04 07:04:57;;;;;;;12.67;10.07;;;;;;;13.99;87.23;98541.16;5074104;28;20213;-84
2023/05/04 07:07:24;;;;;;;10.07;9.00;;;;;;;14.02;86.53;98532.94;5071238;28;20228;-84
2023/05/04 07:09:50;;;;;;;10.90;9.47;;;;;;;14.17;86.33;98542.41;5070866;28;20209;-84
2023/05/04 07:12:17;;;;;;;13.47;9.90;;;;;;;14.21;86.59;98535.91;5071263;28;20343;-84
2023/05/04 07:14:43;;;;;;;13.80;10.20;;;;;;;14.32;84.96;98525.28;5071627;28;20220;-84
2023/05/04 07:17:10;;;;;;;12.00;9.53;;;;;;;14.42;84.69;98528.94;5071564;28;20434;-84
2023/05/04 07:19:37;;;;;;;12.73;9.87;;;;;;;14.59;85.90;98541.72;5071129;28;20252;-85
2023/05/04 07:22:05;;;;;;;10.50;9.33;;;;;;;14.70;83.80;98536.41;5071271;28;20228;-84
2023/05/04 07:24:31;;;;;;;11.77;10.57;;;;;;;14.89;82.84;98531.31;5070508;28;20445;-84
2023/05/04 07:26:58;;;;;;;11.57;9.33;;;;;;;15.04;82.58;98530.09;5071799;28;20676;-84
2023/05/04 07:29:25;;;;;;;10.67;9.57;;;;;;;15.16;80.87;98521.13;5071776;28;20243;-84
2023/05/04 07:31:51;;;;;;;9.70;8.67;;;;;;;15.20;80.30;98511.88;5071726;28;20230;-84
2023/05/04 07:34:18;;;;;;;10.80;9.17;;;;;;;15.28;80.17;98520.13;5071740;28;20215;-84
2023/05/04 07:36:45;;;;;;;10.67;8.73;;;;;;;15.43;78.97;98521.53;5071716;28;20229;-84
2023/05/04 07:39:15;;;;;;;10.37;8.87;;;;;;;15.45;78.94;98516.94;5071761;28;20718;-83
2023/05/04 07:41:41;;;;;;;10.20;8.47;;;;;;;15.56;75.95;98496.44;5071923;28;20230;-83
2023/05/04 07:44:10;;;;;;;10.20;8.80;;;;;;;15.71;76.63;98507.63;5071793;28;20214;-83
2023/05/04 07:46:36;;;;;;;8.87;7.97;;;;;;;15.69;75.09;98506.88;5071784;28;20218;-83
2023/05/04 07:49:03;;;;;;;10.33;8.43;;;;;;;15.77;75.84;98501.78;5071591;28;20234;-87
2023/05/04 07:51:29;;;;;;;9.83;8.70;;;;;;;15.97;75.88;98506.25;5071761;28;20222;-90
2023/05/04 07:53:57;;;;;;;10.07;8.17;;;;;;;16.08;75.23;98500.88;5073386;28;20267;-87
2023/05/04 07:56:25;;;;;;;9.77;8.17;;;;;;;16.18;73.43;98497.28;5072875;28;20270;-83
2023/05/04 07:58:51;;;;;;;8.77;7.37;;;;;;;16.18;72.72;98498.13;5072236;28;20233;-84
2023/05/04 08:01:18;;;;;;;8.50;7.60;;;;;;;16.29;74.78;98500.72;5072415;28;20216;-83
2023/05/04 08:03:44;;;;;;;11.00;8.17;;;;;;;16.44;73.96;98499.41;5092647;28;20227;-84
2023/05/04 08:06:11;;;;;;;9.73;8.13;;;;;;;16.51;73.93;98500.56;5095886;28;20207;-81
2023/05/04 08:08:38;;;;;;;8.50;7.70;;;;;;;16.62;69.98;98479.13;5095891;28;20191;-83
2023/05/04 08:11:04;;;;;;;10.37;7.80;;;;;;;16.77;72.11;98491.09;5093742;28;20212;-83
2023/05/04 08:13:32;;;;;;;8.57;7.67;;;;;;;16.82;70.21;98474.72;5091948;28;20226;-83
2023/05/04 08:16:00;;;;;;;7.87;7.03;;;;;;;16.88;67.16;98458.13;5081556;28;20692;-83
2023/05/04 08:18:27;;;;;;;8.07;7.27;;;;;;;16.90;69.42;98465.03;5072079;28;20214;-83
2023/05/04 08:20:54;;;;;;;7.63;6.83;;;;;;;17.02;70.76;98471.91;5071321;28;20207;-83
2023/05/04 08:23:20;;;;;;;9.33;7.43;;;;;;;17.09;69.84;98464.22;5071383;28;20311;-83
2023/05/04 08:25:46;;;;;;;8.03;7.17;;;;;;;17.24;67.86;98444.16;5071207;28;20215;-83
2023/05/04 08:28:13;;;;;;;7.87;7.07;;;;;;;17.23;68.27;98451.31;5071295;28;20321;-83
2023/05/04 08:30:41;;;;;;;7.73;6.93;;;;;;;17.31;66.28;98438.06;5070912;28;20207;-83
2023/05/04 08:33:09;;;;;;;8.83;6.70;;;;;;;17.34;65.90;98431.59;5070833;28;20245;-83
2023/05/04 08:35:36;;;;;;;7.30;6.43;;;;;;;17.41;67.55;98460.34;5071829;28;20215;-83
2023/05/04 08:38:03;;;;;;;7.40;6.70;;;;;;;17.47;65.11;98430.38;5075213;28;20211;-83
2023/05/04 08:40:29;;;;;;;7.83;7.03;;;;;;;17.56;66.06;98442.88;5074907;28;20566;-83
2023/05/04 08:42:56;;;;;;;7.23;6.53;;;;;;;17.61;67.83;98456.66;5075277;28;20233;-83
2023/05/04 08:45:24;;;;;;;6.97;6.27;;;;;;;17.61;64.76;98426.44;5075005;28;20215;-85
2023/05/04 08:47:52;;;;;;;7.77;6.63;;;;;;;17.75;65.68;98442.84;5074893;28;20211;-83
2023/05/04 08:50:19;;;;;;;8.40;6.93;;;;;;;17.81;66.27;98436.94;5074436;28;20674;-84
2023/05/04 08:52:46;;;;;;;9.33;6.47;;;;;;;17.91;63.38;98415.56;5089414;22;20278;-85
2023/05/04 08:55:15;;;;;;;6.60;5.90;;;;;;;17.95;64.10;98417.78;5075107;28;20261;-85
2023/05/04 08:57:43;;;;;;;7.47;6.50;;;;;;;18.02;63.85;98416.22;5074672;28;20213;-85
2023/05/04 09:00:13;;;;;;;7.53;6.67;;;;;;;18.11;64.61;98423.34;5073989;28;20214;-85
2023/05/04 09:02:40;;;;;;;6.90;6.00;;;;;;;18.22;61.72;98392.94;5074846;28;20277;-86
2023/05/04 09:05:10;;;;;;;7.77;6.47;;;;;;;18.34;65.77;98430.06;5074783;28;20214;-86
2023/05/04 09:07:37;;;;;;;6.27;5.63;;;;;;;18.44;61.97;98396.09;5074744;28;20237;-85
2023/05/04 09:10:05;;;;;;;5.67;5.17;;;;;;;18.50;60.99;98391.97;5074317;28;20218;-86
2023/05/04 09:12:31;;;;;;;6.07;5.57;;;;;;;18.56;59.55;98376.16;5074544;28;20231;-86
2023/05/04 09:15:00;;;;;;;6.13;5.47;;;;;;;18.63;60.74;98387.94;5074616;28;20203;-85
2023/05/04 09:17:28;;;;;;;6.60;5.27;;;;;;;18.72;61.24;98397.75;5075271;28;20250;-86
2023/05/04 09:19:58;;;;;;;5.73;5.00;;;;;;;18.85;61.35;98398.25;5075596;28;20235;-86
2023/05/04 09:22:26;;;;;;;4.73;4.30;;;;;;;18.91;60.49;98384.22;5075979;28;20239;-86
2023/05/04 09:24:53;;;;;;;5.20;4.60;;;;;;;19.11;59.24;98371.53;5076124;28;20242;-86
2023/05/04 09:27:19;;;;;;;5.07;4.57;;;;;;;19.28;57.77;98368.91;5075892;28;20210;-85
2023/05/04 09:29:53;;;;;;;6.10;4.83;;;;;;;19.30;56.96;98360.69;5075789;28;20392;-86
2023/05/04 09:32:19;;;;;;;5.57;4.47;;;;;;;19.40;56.53;98359.63;5074483;28;20242;-86
2023/05/04 09:34:48;;;;;;;4.93;4.30;;;;;;;19.49;55.42;98345.28;5074196;28;20595;-85
2023/05/04 09:37:14;;;;;;;6.60;4.70;;;;;;;19.54;56.26;98358.19;5074737;28;20247;-85
2023/05/04 09:39:54;;;;;;;5.67;4.90;;;;;;;19.61;53.00;98325.25;5073843;28;20215;-85
2023/05/04 09:42:21;;;;;;;6.70;4.47;;;;;;;19.69;55.15;98341.38;5074316;28;20237;-85
2023/05/04 09:44:59;;;;;;;5.17;4.50;;;;;;;19.74;54.42;98331.03;5074305;28;20214;-85
2023/05/04 09:47:33;;;;;;;6.07;4.50;;;;;;;19.83;54.16;98327.41;5072848;28;20204;-85
2023/05/04 09:49:59;;;;;;;7.17;4.30;;;;;;;19.92;53.47;98323.75;5073523;28;20261;-85
2023/05/04 09:52:32;;;;;;;4.70;4.20;;;;;;;19.96;56.49;98360.03;5073616;28;20238;-85
2023/05/04 09:55:00;;;;;;;5.17;4.30;;;;;;;20.01;52.77;98304.03;5073777;28;20257;-87
2023/05/04 09:57:27;;;;;;;5.23;4.73;;;;;;;20.12;53.06;98322.56;5074754;28;20590;-84
2023/05/04 09:59:55;;;;;;;4.83;4.20;;;;;;;20.22;52.12;98301.81;5073189;28;20211;-87
2023/05/04 10:02:22;;;;;;;4.60;4.20;;;;;;;20.28;52.98;98309.22;5073413;28;20231;-84
2023/05/04 10:04:50;;;;;;;4.77;4.37;;;;;;;20.38;55.14;98344.84;5073561;28;20207;-85
2023/05/04 10:07:17;;;;;;;4.43;3.93;;;;;;;20.35;50.17;98272.66;5074794;28;20282;-84
2023/05/04 10:09:44;;;;;;;4.33;3.93;;;;;;;20.49;51.64;98301.56;5075198;28;20400;-84
2023/05/04 10:12:13;;;;;;;4.47;4.00;;;;;;;20.50;49.70;98270.19;5073526;28;20228;-84
2023/05/04 10:14:41;;;;;;;5.30;4.23;;;;;;;20.66;52.11;98314.03;5073507;28;20214;-82
2023/05/04 10:17:19;;;;;;;6.03;3.87;;;;;;;20.75;51.00;98296.09;5073251;28;20641;-84
2023/05/04 10:19:59;;;;;;;4.83;3.97;;;;;;;20.76;51.38;98295.06;5073115;28;20215;-84
2023/05/04 10:22:43;;;;;;;4.13;3.73;;;;;;;20.90;52.93;98321.34;5073150;28;20321;-81
2023/05/04 10:25:29;;;;;;;4.47;3.93;;;;;;;20.88;49.51;98277.66;5072855;28;20677;-83
2023/05/04 10:28:04;;;;;;;4.37;3.97;;;;;;;21.02;52.30;98318.16;5072760;28;20215;-83
2023/05/04 10:30:31;;;;;;;4.37;3.97;;;;;;;21.07;49.51;98272.81;5072706;28;20207;-83
2023/05/04 10:33:00;;;;;;;5.17;4.03;;;;;;;21.14;49.27;98262.22;5072764;28;20608;-83
2023/05/04 10:35:27;;;;;;;4.60;4.00;;;;;;;21.16;48.74;98255.66;5072813;28;20211;-82
2023/05/04 10:37:55;;;;;;;5.17;4.20;;;;;;;21.22;51.07;98287.25;5072608;28;20207;-81
2023/05/04 10:40:34;;;;;;;4.60;3.50;;;;;;;21.30;49.25;98246.94;5072213;28;20210;-84
2023/05/04 10:43:02;;;;;;;4.10;3.70;;;;;;;21.41;48.02;98243.91;5072750;28;20227;-85
2023/05/04 10:45:36;;;;;;;3.90;3.30;;;;;;;21.27;47.44;98228.44;5072465;28;20218;-85
2023/05/04 10:48:03;;;;;;;5.17;3.80;;;;;;;21.43;48.93;98251.75;5072655;28;20222;-85
2023/05/04 10:50:41;;;;;;;5.13;3.73;;;;;;;21.39;47.68;98234.31;5072279;28;20305;-84
2023/05/04 10:53:07;;;;;;;4.07;3.57;;;;;;;21.36;46.46;98213.13;5072328;28;20227;-81
2023/05/04 10:55:39;;;;;;;4.23;3.83;;;;;;;21.55;49.50;98251.25;5072544;28;20211;-88
2023/05/04 10:58:07;;;;;;;4.80;3.95;;;;;;;21.64;47.61;98223.31;5071682;28;20438;-84
2023/05/04 11:00:37;;;;;;;3.93;3.23;;;;;;;21.59;47.24;98222.16;5072102;28;20232;-85
2023/05/04 11:03:06;;;;;;;4.00;3.70;;;;;;;21.77;49.77;98261.31;5072239;28;20222;-86
2023/05/04 11:05:40;;;;;;;4.37;3.33;;;;;;;21.93;46.05;98201.19;5073318;28;20211;-84
2023/05/04 11:08:15;;;;;;;3.60;3.30;;;;;;;22.05;48.50;98232.94;5072420;28;20222;-85
2023/05/04 11:10:42;;;;;;;4.20;3.37;;;;;;;22.13;47.17;98216.75;5076210;28;20207;-85
2023/05/04 11:13:12;;;;;;;3.47;3.17;;;;;;;22.10;46.24;98198.28;5078193;28;20705;-85
2023/05/04 11:15:46;;;;;;;3.83;3.40;;;;;;;22.14;46.91;98209.53;5078414;28;20203;-85
2023/05/04 11:18:13;;;;;;;4.87;3.43;;;;;;;22.23;49.29;98252.38;5078487;28;20217;-85
2023/05/04 11:20:40;;;;;;;3.70;3.30;;;;;;;22.31;46.41;98201.16;5076009;28;20211;-84
2023/05/04 11:23:09;;;;;;;3.90;3.53;;;;;;;22.45;45.35;98176.22;5071867;28;20439;-85
2023/05/04 11:25:36;;;;;;;3.90;3.60;;;;;;;22.46;45.30;98183.28;5071669;28;20476;-87
2023/05/04 11:28:03;;;;;;;4.47;3.53;;;;;;;22.52;46.17;98196.03;5071870;28;20677;-85
2023/05/04 11:30:34;;;;;;;4.33;3.93;;;;;;;22.57;47.34;98207.13;5071321;28;20268;-83
2023/05/04 11:33:03;;;;;;;3.80;3.23;;;;;;;22.52;46.02;98182.56;5071786;28;20607;-84